createdAt,value
2018-09-10T00:00:14.870Z,16.20
2018-09-10T00:02:43.184Z,16.20
2018-09-10T00:05:11.434Z,16.20
2018-09-10T00:07:39.689Z,16.20
2018-09-10T00:10:07.996Z,16.20
2018-09-10T00:12:36.220Z,16.20
2018-09-10T00:15:04.526Z,16.20
2018-09-10T00:17:32.812Z,16.20
2018-09-10T00:20:01.053Z,16.20
2018-09-10T00:22:29.292Z,16.10
2018-09-10T00:24:57.571Z,16.10
2018-09-10T00:27:25.836Z,16.10
2018-09-10T00:29:54.064Z,16.10
2018-09-10T00:32:22.373Z,16.10
2018-09-10T00:34:50.728Z,16.10
2018-09-10T00:37:19.085Z,16.10
2018-09-10T00:39:47.435Z,16.10
2018-09-10T00:42:15.667Z,16.10
2018-09-10T00:44:43.972Z,16.10
2018-09-10T00:47:12.221Z,16.10
2018-09-10T00:49:40.513Z,16.10
2018-09-10T00:52:08.762Z,16.10
2018-09-10T00:54:37.068Z,16.10
2018-09-10T00:57:05.313Z,16.10
2018-09-10T00:59:33.587Z,16.10
2018-09-10T01:02:01.849Z,16.10
2018-09-10T01:04:30.141Z,16.10
2018-09-10T01:06:58.450Z,16.10
2018-09-10T01:09:26.873Z,16.10
2018-09-10T01:11:55.273Z,16.10
2018-09-10T01:14:23.565Z,16.10
2018-09-10T01:16:51.810Z,16.10
2018-09-10T01:19:20.054Z,16.10
2018-09-10T01:21:48.329Z,16.10
2018-09-10T01:24:16.604Z,16.10
2018-09-10T01:26:44.834Z,16.10
2018-09-10T01:29:13.076Z,16.10
2018-09-10T01:31:41.326Z,16.10
2018-09-10T01:34:15.004Z,16.10
2018-09-10T01:36:43.244Z,16.10
2018-09-10T01:39:11.501Z,16.00
2018-09-10T01:41:39.822Z,16.00
2018-09-10T01:44:08.165Z,16.00
2018-09-10T01:46:36.427Z,16.00
2018-09-10T01:49:04.700Z,16.00
2018-09-10T01:51:33.019Z,16.00
2018-09-10T01:54:01.910Z,15.90
2018-09-10T01:56:30.221Z,15.90
2018-09-10T01:58:58.562Z,16.00
2018-09-10T02:01:26.793Z,16.00
2018-09-10T02:03:55.085Z,16.00
2018-09-10T02:06:23.350Z,16.00
2018-09-10T02:08:51.628Z,15.90
2018-09-10T02:11:20.915Z,16.00
2018-09-10T02:13:49.202Z,16.10
2018-09-10T02:16:17.826Z,16.20
2018-09-10T02:18:46.940Z,16.30
2018-09-10T02:21:15.748Z,16.30
2018-09-10T02:23:44.095Z,16.20
2018-09-10T02:26:12.305Z,16.20
2018-09-10T02:28:40.646Z,16.20
2018-09-10T02:31:08.952Z,16.20
2018-09-10T02:33:37.283Z,16.10
2018-09-10T02:36:05.812Z,16.10
2018-09-10T02:38:34.214Z,16.10
2018-09-10T02:41:02.543Z,16.10
2018-09-10T02:43:30.898Z,16.10
2018-09-10T02:45:59.196Z,16.10
2018-09-10T02:48:27.449Z,16.10
2018-09-10T02:50:55.730Z,16.10
2018-09-10T02:53:23.989Z,16.20
2018-09-10T02:55:52.258Z,16.20
2018-09-10T02:58:20.532Z,16.20
2018-09-10T03:00:48.817Z,16.20
2018-09-10T03:03:17.021Z,16.20
2018-09-10T03:05:45.398Z,16.30
2018-09-10T03:08:13.670Z,16.20
2018-09-10T03:10:42.298Z,16.20
2018-09-10T03:13:10.547Z,16.10
2018-09-10T03:15:38.824Z,16.20
2018-09-10T03:18:06.840Z,16.10
2018-09-10T03:20:35.001Z,16.10
2018-09-10T03:23:03.329Z,16.10
2018-09-10T03:25:31.551Z,16.10
2018-09-10T03:27:59.796Z,16.10
2018-09-10T03:30:28.091Z,16.10
2018-09-10T03:32:56.321Z,16.10
2018-09-10T03:35:24.958Z,16.10
2018-09-10T03:37:53.251Z,16.10
2018-09-10T03:40:21.515Z,16.10
2018-09-10T03:42:49.840Z,16.10
2018-09-10T03:45:18.108Z,16.10
2018-09-10T03:47:46.396Z,16.20
2018-09-10T03:50:14.681Z,16.20
2018-09-10T03:52:42.893Z,16.30
2018-09-10T03:55:11.284Z,16.20
2018-09-10T03:57:39.535Z,16.30
2018-09-10T04:00:08.066Z,16.30
2018-09-10T04:02:36.347Z,16.40
2018-09-10T04:05:04.592Z,16.40
2018-09-10T04:07:32.856Z,16.50
2018-09-10T04:10:01.137Z,16.50
2018-09-10T04:12:29.402Z,16.50
2018-09-10T04:14:57.647Z,16.50
2018-09-10T04:17:26.003Z,16.50
2018-09-10T04:19:59.688Z,16.50
2018-09-10T04:22:27.951Z,16.50
2018-09-10T04:24:56.219Z,16.40
2018-09-10T04:27:24.532Z,16.40
2018-09-10T04:29:52.842Z,16.40
2018-09-10T04:32:21.142Z,16.30
2018-09-10T04:34:49.470Z,16.30
2018-09-10T04:37:17.757Z,16.40
2018-09-10T04:39:46.036Z,16.40
2018-09-10T04:42:14.441Z,16.60
2018-09-10T04:44:42.702Z,16.60
2018-09-10T04:47:11.008Z,16.60
2018-09-10T04:49:39.364Z,16.60
2018-09-10T04:52:07.639Z,16.60
2018-09-10T04:54:35.893Z,16.60
2018-09-10T04:57:04.171Z,16.60
2018-09-10T04:59:32.459Z,16.70
2018-09-10T05:02:00.707Z,16.70
2018-09-10T05:04:29.041Z,16.60
2018-09-10T05:06:57.335Z,16.50
2018-09-10T05:09:25.641Z,16.50
2018-09-10T05:11:53.907Z,16.50
2018-09-10T05:14:22.178Z,16.50
2018-09-10T05:16:50.458Z,16.50
2018-09-10T05:19:18.766Z,16.40
2018-09-10T05:21:47.064Z,16.60
2018-09-10T05:24:15.372Z,16.50
2018-09-10T05:26:43.674Z,16.40
2018-09-10T05:29:12.565Z,16.30
2018-09-10T05:31:40.868Z,16.30
2018-09-10T05:34:09.189Z,16.40
2018-09-10T05:36:37.478Z,16.40
2018-09-10T05:39:07.016Z,16.50
2018-09-10T05:41:35.347Z,16.60
2018-09-10T05:44:03.626Z,16.60
2018-09-10T05:46:31.879Z,16.60
2018-09-10T05:49:00.148Z,16.60
2018-09-10T05:51:28.401Z,16.60
2018-09-10T05:53:56.690Z,16.70
2018-09-10T05:56:24.976Z,16.60
2018-09-10T05:58:53.523Z,16.60
2018-09-10T06:01:21.851Z,16.50
2018-09-10T06:03:50.177Z,16.40
2018-09-10T06:06:18.495Z,16.40
2018-09-10T06:08:46.822Z,16.50
2018-09-10T06:11:15.088Z,16.60
2018-09-10T06:13:43.409Z,16.60
2018-09-10T06:16:11.714Z,16.70
2018-09-10T06:18:39.952Z,16.70
2018-09-10T06:21:08.248Z,16.70
2018-09-10T06:23:36.537Z,16.90
2018-09-10T06:26:04.804Z,16.90
2018-09-10T06:28:33.047Z,17.10
2018-09-10T06:31:01.347Z,17.10
2018-09-10T06:33:29.601Z,17.10
2018-09-10T06:35:57.845Z,17.10
2018-09-10T06:38:26.150Z,17.00
2018-09-10T06:40:54.453Z,17.10
2018-09-10T06:43:22.770Z,17.20
2018-09-10T06:45:51.298Z,17.20
2018-09-10T06:48:19.656Z,17.20
2018-09-10T06:50:47.950Z,17.20
2018-09-10T06:53:16.282Z,17.20
2018-09-10T06:55:44.529Z,17.20
2018-09-10T06:58:12.771Z,17.20
2018-09-10T07:00:41.360Z,17.20
2018-09-10T07:03:09.645Z,17.30
2018-09-10T07:05:37.933Z,17.30
2018-09-10T07:08:06.278Z,17.30
2018-09-10T07:10:34.532Z,17.30
2018-09-10T07:13:02.793Z,17.40
2018-09-10T07:15:31.012Z,17.40
2018-09-10T07:17:59.256Z,17.50
2018-09-10T07:20:27.480Z,17.50
2018-09-10T07:22:55.833Z,17.60
2018-09-10T07:25:24.106Z,17.60
2018-09-10T07:27:52.352Z,17.50
2018-09-10T07:30:20.713Z,17.50
2018-09-10T07:32:48.953Z,17.60
2018-09-10T07:35:17.221Z,17.80
2018-09-10T07:37:45.430Z,18.00
2018-09-10T07:40:13.700Z,18.10
2018-09-10T07:42:41.965Z,18.20
2018-09-10T07:45:10.210Z,18.30
2018-09-10T07:47:38.462Z,18.20
2018-09-10T07:50:06.728Z,18.20
2018-09-10T07:52:35.005Z,18.10
2018-09-10T07:55:03.249Z,18.20
2018-09-10T07:57:31.526Z,18.30
2018-09-10T08:00:00.161Z,18.30
2018-09-10T08:02:28.482Z,18.30
2018-09-10T08:04:56.706Z,18.30
2018-09-10T08:07:24.950Z,18.30
2018-09-10T08:09:53.469Z,18.20
2018-09-10T08:12:21.721Z,18.20
2018-09-10T08:14:49.987Z,18.20
2018-09-10T08:17:18.232Z,18.10
2018-09-10T08:19:46.465Z,18.20
2018-09-10T08:22:14.708Z,18.20
2018-09-10T08:24:42.961Z,18.30
2018-09-10T08:27:11.229Z,18.20
2018-09-10T08:29:39.543Z,18.30
2018-09-10T08:32:07.853Z,18.40
2018-09-10T08:34:36.248Z,18.60
2018-09-10T08:37:05.032Z,18.40
2018-09-10T08:39:33.514Z,18.40
2018-09-10T08:42:01.883Z,18.50
2018-09-10T08:44:30.502Z,18.40
2018-09-10T08:46:58.971Z,18.40
2018-09-10T08:49:27.262Z,18.40
2018-09-10T08:51:55.539Z,18.30
2018-09-10T08:54:24.000Z,18.40
2018-09-10T08:56:52.149Z,18.40
2018-09-10T08:59:20.400Z,18.50
2018-09-10T09:01:48.700Z,18.60
2018-09-10T09:04:17.750Z,18.80
2018-09-10T09:06:46.012Z,18.70
2018-09-10T09:09:14.316Z,18.80
2018-09-10T09:11:42.709Z,18.80
2018-09-10T09:14:10.959Z,19.00
2018-09-10T09:16:39.214Z,19.10
2018-09-10T09:19:07.452Z,19.00
2018-09-10T09:21:35.744Z,19.10
2018-09-10T09:24:04.022Z,19.10
2018-09-10T09:26:32.281Z,19.00
2018-09-10T09:29:00.514Z,19.10
2018-09-10T09:31:28.767Z,19.40
2018-09-10T09:33:57.046Z,19.50
2018-09-10T09:36:30.616Z,19.50
2018-09-10T09:39:04.270Z,19.50
2018-09-10T09:41:37.731Z,19.50
2018-09-10T09:44:11.537Z,19.60
2018-09-10T09:46:39.761Z,19.60
2018-09-10T09:49:08.077Z,19.60
2018-09-10T09:51:36.325Z,19.70
2018-09-10T09:54:04.593Z,19.80
2018-09-10T09:56:32.851Z,19.90
2018-09-10T09:59:01.060Z,19.80
2018-09-10T10:01:34.803Z,19.70
2018-09-10T10:04:08.530Z,19.80
2018-09-10T10:06:37.024Z,19.80
2018-09-10T10:09:08.443Z,19.90
2018-09-10T10:11:36.739Z,19.80
2018-09-10T10:14:05.188Z,19.80
2018-09-10T10:16:33.447Z,19.80
2018-09-10T10:19:01.692Z,19.90
2018-09-10T10:21:29.943Z,19.90
2018-09-10T10:23:58.327Z,19.90
2018-09-10T10:26:26.668Z,20.00
2018-09-10T10:28:54.989Z,20.00
2018-09-10T10:31:23.576Z,20.10
2018-09-10T10:33:51.905Z,20.00
2018-09-10T10:36:20.156Z,20.00
2018-09-10T10:38:48.464Z,20.10
2018-09-10T10:41:16.707Z,20.10
2018-09-10T10:43:44.971Z,20.10
2018-09-10T10:46:13.247Z,20.20
2018-09-10T10:48:41.536Z,20.10
2018-09-10T10:51:09.792Z,20.10
2018-09-10T10:53:38.108Z,20.10
2018-09-10T10:56:06.338Z,20.00
2018-09-10T10:58:34.646Z,20.00
2018-09-10T11:01:02.942Z,20.10
2018-09-10T11:03:31.238Z,20.20
2018-09-10T11:05:59.544Z,20.10
2018-09-10T11:08:27.786Z,20.20
2018-09-10T11:10:56.079Z,20.30
2018-09-10T11:13:24.888Z,20.40
2018-09-10T11:15:53.177Z,20.60
2018-09-10T11:18:21.511Z,20.60
2018-09-10T11:20:49.798Z,20.70
2018-09-10T11:23:18.108Z,20.80
2018-09-10T11:25:46.367Z,20.80
2018-09-10T11:28:14.637Z,20.70
2018-09-10T11:30:42.905Z,20.80
2018-09-10T11:33:11.171Z,20.80
2018-09-10T11:35:39.443Z,20.90
2018-09-10T11:38:07.766Z,20.70
2018-09-10T11:40:36.097Z,20.80
2018-09-10T11:43:04.414Z,20.80
2018-09-10T11:45:32.658Z,20.90
2018-09-10T11:48:00.889Z,20.80
2018-09-10T11:50:29.196Z,21.00
2018-09-10T11:52:57.515Z,21.00
2018-09-10T11:55:25.806Z,20.90
2018-09-10T11:57:54.019Z,20.80
2018-09-10T12:00:22.342Z,20.90
2018-09-10T12:02:50.580Z,20.80
2018-09-10T12:05:18.882Z,20.80
2018-09-10T12:07:47.126Z,20.90
2018-09-10T12:10:15.439Z,21.00
2018-09-10T12:12:43.776Z,20.90
2018-09-10T12:15:12.083Z,20.90
2018-09-10T12:17:40.449Z,20.80
2018-09-10T12:20:08.701Z,20.70
2018-09-10T12:22:37.027Z,20.80
2018-09-10T12:25:05.297Z,21.00
2018-09-10T12:27:33.565Z,21.00
2018-09-10T12:30:01.852Z,20.90
2018-09-10T12:32:30.226Z,20.80
2018-09-10T12:34:58.427Z,20.70
2018-09-10T12:37:26.684Z,20.80
2018-09-10T12:39:54.961Z,21.00
2018-09-10T12:42:23.244Z,21.10
2018-09-10T12:44:51.535Z,21.20
2018-09-10T12:47:19.848Z,21.30
2018-09-10T12:49:48.213Z,21.40
2018-09-10T12:52:16.526Z,21.30
2018-09-10T12:54:44.826Z,21.40
2018-09-10T12:57:13.320Z,21.50
2018-09-10T12:59:41.598Z,21.60
2018-09-10T13:02:09.814Z,21.60
2018-09-10T13:04:38.072Z,21.90
2018-09-10T13:07:06.439Z,21.80
2018-09-10T13:09:34.718Z,21.70
2018-09-10T13:12:02.995Z,21.50
2018-09-10T13:14:31.448Z,21.40
2018-09-10T13:16:59.697Z,21.40
2018-09-10T13:19:28.107Z,21.40
2018-09-10T13:21:56.376Z,21.50
2018-09-10T13:24:24.698Z,21.70
2018-09-10T13:26:53.052Z,21.90
2018-09-10T13:29:21.392Z,22.00
2018-09-10T13:31:49.724Z,22.00
2018-09-10T13:34:18.004Z,21.80
2018-09-10T13:36:46.376Z,21.70
2018-09-10T13:39:14.584Z,21.70
2018-09-10T13:41:42.848Z,21.50
2018-09-10T13:44:11.157Z,21.40
2018-09-10T13:46:39.435Z,21.30
2018-09-10T13:49:07.699Z,21.10
2018-09-10T13:51:36.004Z,21.20
2018-09-10T13:54:04.357Z,21.10
2018-09-10T13:56:32.573Z,21.20
2018-09-10T13:59:00.828Z,21.10
2018-09-10T14:01:29.138Z,21.20
2018-09-10T14:03:57.531Z,21.30
2018-09-10T14:06:27.692Z,21.20
2018-09-10T14:08:56.127Z,21.10
2018-09-10T14:11:24.422Z,21.10
2018-09-10T14:13:52.710Z,21.00
2018-09-10T14:16:20.953Z,21.00
2018-09-10T14:18:49.216Z,21.00
2018-09-10T14:21:17.491Z,20.90
2018-09-10T14:23:45.794Z,20.80
2018-09-10T14:26:14.074Z,20.80
2018-09-10T14:28:42.324Z,20.90
2018-09-10T14:31:10.584Z,20.90
2018-09-10T14:33:38.826Z,20.90
2018-09-10T14:36:07.831Z,20.90
2018-09-10T14:38:36.178Z,20.90
2018-09-10T14:41:04.526Z,20.80
2018-09-10T14:43:32.834Z,20.80
2018-09-10T14:46:01.086Z,20.80
2018-09-10T14:48:29.324Z,20.80
2018-09-10T14:50:57.633Z,20.80
2018-09-10T14:53:25.959Z,20.80
2018-09-10T14:55:54.288Z,20.80
2018-09-10T14:58:22.677Z,20.80
2018-09-10T15:00:51.311Z,20.80
2018-09-10T15:03:19.543Z,20.80
2018-09-10T15:05:47.838Z,20.80
2018-09-10T15:08:16.096Z,20.70
2018-09-10T15:10:44.378Z,20.90
2018-09-10T15:13:12.683Z,20.90
2018-09-10T15:15:40.985Z,20.90
2018-09-10T15:18:09.354Z,21.00
2018-09-10T15:20:37.765Z,20.90
2018-09-10T15:23:06.142Z,20.90
2018-09-10T15:25:34.472Z,20.80
2018-09-10T15:28:02.713Z,20.70
2018-09-10T15:30:30.975Z,20.60
2018-09-10T15:32:59.238Z,20.50
2018-09-10T15:35:27.513Z,20.50
2018-09-10T15:37:55.810Z,20.50
2018-09-10T15:40:24.055Z,20.50
2018-09-10T15:42:52.338Z,20.60
2018-09-10T15:45:20.693Z,20.60
2018-09-10T15:47:48.900Z,20.70
2018-09-10T15:50:17.215Z,20.70
2018-09-10T15:52:45.548Z,20.70
2018-09-10T15:55:13.812Z,20.70
2018-09-10T15:57:42.131Z,20.70
2018-09-10T16:00:10.477Z,20.70
2018-09-10T16:02:38.688Z,20.70
2018-09-10T16:05:07.023Z,20.60
2018-09-10T16:07:35.309Z,20.60
2018-09-10T16:10:03.584Z,20.60
2018-09-10T16:12:31.843Z,20.60
2018-09-10T16:15:00.149Z,20.50
2018-09-10T16:17:28.432Z,20.50
2018-09-10T16:19:56.702Z,20.40
2018-09-10T16:22:25.011Z,20.40
2018-09-10T16:24:53.275Z,20.40
2018-09-10T16:27:21.566Z,20.50
2018-09-10T16:29:50.873Z,20.50
2018-09-10T16:32:19.119Z,20.50
2018-09-10T16:34:47.375Z,20.50
2018-09-10T16:37:15.633Z,20.40
2018-09-10T16:39:43.963Z,20.50
2018-09-10T16:42:12.278Z,20.50
2018-09-10T16:44:40.735Z,20.50
2018-09-10T16:47:09.013Z,20.50
2018-09-10T16:49:37.304Z,20.40
2018-09-10T16:52:05.597Z,20.40
2018-09-10T16:54:33.925Z,20.40
2018-09-10T16:57:02.116Z,20.30
2018-09-10T16:59:30.474Z,20.20
2018-09-10T17:01:58.784Z,20.20
2018-09-10T17:04:27.140Z,20.20
2018-09-10T17:06:56.195Z,20.20
2018-09-10T17:09:24.494Z,20.20
2018-09-10T17:11:52.951Z,20.10
2018-09-10T17:14:21.222Z,20.10
2018-09-10T17:16:49.471Z,20.10
2018-09-10T17:19:17.798Z,20.00
2018-09-10T17:21:46.083Z,20.00
2018-09-10T17:24:14.354Z,20.00
2018-09-10T17:26:42.728Z,19.90
2018-09-10T17:29:11.029Z,19.90
2018-09-10T17:31:39.571Z,19.90
2018-09-10T17:34:07.902Z,19.80
2018-09-10T17:36:36.280Z,19.80
2018-09-10T17:39:06.928Z,19.80
2018-09-10T17:41:35.208Z,19.80
2018-09-10T17:44:03.525Z,19.80
2018-09-10T17:46:31.881Z,19.80
2018-09-10T17:49:00.156Z,19.80
2018-09-10T17:51:28.377Z,19.70
2018-09-10T17:53:56.718Z,19.70
2018-09-10T17:56:24.990Z,19.70
2018-09-10T17:58:53.318Z,19.70
2018-09-10T18:01:21.573Z,19.60
2018-09-10T18:03:49.868Z,19.60
2018-09-10T18:06:18.148Z,19.60
2018-09-10T18:08:46.424Z,19.60
2018-09-10T18:11:14.711Z,19.60
2018-09-10T18:13:43.010Z,19.60
2018-09-10T18:16:11.344Z,19.50
2018-09-10T18:18:39.640Z,19.50
2018-09-10T18:21:08.936Z,19.40
2018-09-10T18:23:37.261Z,19.40
2018-09-10T18:26:05.575Z,19.40
2018-09-10T18:28:33.838Z,19.40
2018-09-10T18:31:02.068Z,19.30
2018-09-10T18:33:30.321Z,19.30
2018-09-10T18:35:58.593Z,19.30
2018-09-10T18:38:26.853Z,19.20
2018-09-10T18:40:55.109Z,19.10
2018-09-10T18:43:23.424Z,19.10
2018-09-10T18:45:51.659Z,19.10
2018-09-10T18:48:19.925Z,19.10
2018-09-10T18:50:48.243Z,19.10
2018-09-10T18:53:16.520Z,19.00
2018-09-10T18:55:44.913Z,18.90
2018-09-10T18:58:13.238Z,18.90
2018-09-10T19:00:41.596Z,18.90
2018-09-10T19:03:09.804Z,18.80
2018-09-10T19:05:38.090Z,18.80
2018-09-10T19:08:06.360Z,18.80
2018-09-10T19:10:34.820Z,18.70
2018-09-10T19:13:03.114Z,18.70
2018-09-10T19:15:31.424Z,18.70
2018-09-10T19:17:59.728Z,18.70
2018-09-10T19:20:28.112Z,18.60
2018-09-10T19:22:56.393Z,18.60
2018-09-10T19:25:24.722Z,18.60
2018-09-10T19:27:53.029Z,18.60
2018-09-10T19:30:21.361Z,18.60
2018-09-10T19:32:49.914Z,18.60
2018-09-10T19:35:18.257Z,18.50
2018-09-10T19:37:46.530Z,18.50
2018-09-10T19:40:14.804Z,18.50
2018-09-10T19:42:43.047Z,18.50
2018-09-10T19:45:11.324Z,18.40
2018-09-10T19:47:39.561Z,18.40
2018-09-10T19:50:08.475Z,18.40
2018-09-10T19:52:36.746Z,18.40
2018-09-10T19:55:05.216Z,18.40
2018-09-10T19:57:33.442Z,18.40
2018-09-10T20:00:02.532Z,18.30
2018-09-10T20:02:30.853Z,18.30
2018-09-10T20:04:59.193Z,18.30
2018-09-10T20:07:27.460Z,18.30
2018-09-10T20:09:55.909Z,18.30
2018-09-10T20:12:24.169Z,18.30
2018-09-10T20:14:52.574Z,18.20
2018-09-10T20:17:20.838Z,18.20
2018-09-10T20:19:49.110Z,18.20
2018-09-10T20:22:18.174Z,18.20
2018-09-10T20:24:46.473Z,18.20
2018-09-10T20:27:15.383Z,18.20
2018-09-10T20:29:43.699Z,18.20
2018-09-10T20:32:11.928Z,18.20
2018-09-10T20:34:40.227Z,18.20
2018-09-10T20:37:08.498Z,18.20
2018-09-10T20:39:36.761Z,18.10
2018-09-10T20:42:05.659Z,18.10
2018-09-10T20:44:33.925Z,18.10
2018-09-10T20:47:02.196Z,18.10
2018-09-10T20:49:30.527Z,18.10
2018-09-10T20:51:58.740Z,18.00
2018-09-10T20:54:27.024Z,17.90
2018-09-10T20:56:55.320Z,17.90
2018-09-10T20:59:23.574Z,17.80
2018-09-10T21:01:51.871Z,17.80
2018-09-10T21:04:20.232Z,17.80
2018-09-10T21:06:48.485Z,17.80
2018-09-10T21:09:16.740Z,17.80
2018-09-10T21:11:45.068Z,17.80
2018-09-10T21:14:13.276Z,17.70
2018-09-10T21:16:41.569Z,17.70
2018-09-10T21:19:09.917Z,17.70
2018-09-10T21:21:38.282Z,17.70
2018-09-10T21:24:13.252Z,17.70
2018-09-10T21:26:41.880Z,17.60
2018-09-10T21:29:10.173Z,17.60
2018-09-10T21:31:38.484Z,17.60
2018-09-10T21:34:07.085Z,17.50
2018-09-10T21:36:35.354Z,17.40
2018-09-10T21:39:03.713Z,17.30
2018-09-10T21:41:31.951Z,17.40
2018-09-10T21:44:00.213Z,17.30
2018-09-10T21:46:28.589Z,17.30
2018-09-10T21:48:56.867Z,17.30
2018-09-10T21:51:25.178Z,17.20
2018-09-10T21:53:53.492Z,17.20
2018-09-10T21:56:21.762Z,17.20
2018-09-10T21:58:50.061Z,17.20
2018-09-10T22:01:18.328Z,17.20
2018-09-10T22:03:46.613Z,17.20
2018-09-10T22:06:14.934Z,17.10
2018-09-10T22:08:43.222Z,17.10
2018-09-10T22:11:11.511Z,17.10
2018-09-10T22:13:39.786Z,17.10
2018-09-10T22:16:08.084Z,17.00
2018-09-10T22:18:36.332Z,17.00
2018-09-10T22:21:04.867Z,16.90
2018-09-10T22:23:33.142Z,16.90
2018-09-10T22:26:01.458Z,16.90
2018-09-10T22:28:29.701Z,16.90
2018-09-10T22:30:57.958Z,17.00
2018-09-10T22:33:26.225Z,16.90
2018-09-10T22:35:54.487Z,16.90
2018-09-10T22:38:22.747Z,16.90
2018-09-10T22:40:51.105Z,16.90
2018-09-10T22:43:19.807Z,16.80
2018-09-10T22:45:48.082Z,16.80
2018-09-10T22:48:16.365Z,16.80
2018-09-10T22:50:44.620Z,16.80
2018-09-10T22:53:12.818Z,16.70
2018-09-10T22:55:41.134Z,16.70
2018-09-10T22:58:09.530Z,16.70
2018-09-10T23:00:37.780Z,16.70
2018-09-10T23:03:06.000Z,16.70
2018-09-10T23:05:34.267Z,16.60
2018-09-10T23:08:02.716Z,16.60
2018-09-10T23:10:31.005Z,16.70
2018-09-10T23:12:59.298Z,16.70
2018-09-10T23:15:28.809Z,16.70
2018-09-10T23:17:57.125Z,16.80
2018-09-10T23:20:25.391Z,16.80
2018-09-10T23:22:53.704Z,16.70
2018-09-10T23:25:22.079Z,16.60
2018-09-10T23:27:50.369Z,16.60
2018-09-10T23:30:18.660Z,16.60
2018-09-10T23:32:46.930Z,16.60
2018-09-10T23:35:15.195Z,16.60
2018-09-10T23:37:43.469Z,16.60
2018-09-10T23:40:11.738Z,16.60
2018-09-10T23:42:40.010Z,16.60
2018-09-10T23:45:08.238Z,16.50
2018-09-10T23:47:36.484Z,16.50
2018-09-10T23:50:05.196Z,16.40
2018-09-10T23:52:33.496Z,16.30
2018-09-10T23:55:01.849Z,16.40
2018-09-10T23:57:30.145Z,16.40
2018-09-10T23:59:59.407Z,16.40
